createdAt,value
2019-02-11T00:03:28.643Z,100271.13
2019-02-11T00:07:13.469Z,100280.75
2019-02-11T00:10:59.645Z,100283.89
2019-02-11T00:14:44.907Z,100302.63
2019-02-11T00:18:29.707Z,100305.64
2019-02-11T00:22:14.454Z,100318.58
2019-02-11T00:25:59.173Z,100335.37
2019-02-11T00:29:44.014Z,100347.30
2019-02-11T00:33:29.409Z,100355.73
2019-02-11T00:37:14.456Z,100369.66
2019-02-11T00:40:59.500Z,100371.16
2019-02-11T00:44:44.361Z,100374.83
2019-02-11T00:48:10.061Z,100377.31
2019-02-11T00:51:47.216Z,100388.66
2019-02-11T00:55:31.895Z,100395.09
2019-02-11T00:59:16.900Z,100403.75
2019-02-11T01:03:01.786Z,100411.16
2019-02-11T01:06:46.501Z,100424.11
2019-02-11T01:10:31.287Z,100426.86
2019-02-11T01:14:16.039Z,100434.33
2019-02-11T01:18:01.092Z,100449.50
2019-02-11T01:22:04.678Z,100449.20
2019-02-11T01:25:49.406Z,100460.59
2019-02-11T01:29:34.244Z,100466.35
2019-02-11T01:33:19.463Z,100480.17
2019-02-11T01:37:04.338Z,100486.54
2019-02-11T01:40:49.292Z,100487.59
2019-02-11T01:44:34.420Z,100496.47
2019-02-11T01:48:19.576Z,100502.77
2019-02-11T01:51:57.818Z,100514.80
2019-02-11T01:55:42.906Z,100521.30
2019-02-11T01:59:27.659Z,100530.66
2019-02-11T02:07:17.779Z,100539.31
2019-02-11T02:11:21.557Z,100538.51
2019-02-11T02:15:06.585Z,100542.13
2019-02-11T02:18:51.399Z,100546.84
2019-02-11T02:22:17.015Z,100556.70
2019-02-11T02:26:01.791Z,100558.08
2019-02-11T02:29:46.463Z,100558.61
2019-02-11T02:33:31.330Z,100573.75
2019-02-11T02:37:16.336Z,100575.73
2019-02-11T02:41:01.124Z,100585.80
2019-02-11T02:44:45.903Z,100607.53
2019-02-11T02:48:30.723Z,100602.75
2019-02-11T02:52:08.809Z,100612.69
2019-02-11T02:55:34.568Z,100612.91
2019-02-11T02:59:19.411Z,100630.58
2019-02-11T03:03:04.155Z,100634.42
2019-02-11T03:06:49.018Z,100642.06
2019-02-11T03:10:34.228Z,100643.27
2019-02-11T03:14:05.899Z,100656.47
2019-02-11T03:17:46.739Z,100671.30
2019-02-11T03:25:37.057Z,100680.03
2019-02-11T03:29:22.044Z,100684.37
2019-02-11T03:33:06.589Z,100686.73
2019-02-11T03:36:51.506Z,100697.08
2019-02-11T03:40:37.041Z,100713.51
2019-02-11T03:44:21.792Z,100711.85
2019-02-11T03:48:06.694Z,100722.97
2019-02-11T03:51:44.178Z,100731.40
2019-02-11T03:55:28.912Z,100753.46
2019-02-11T03:59:13.763Z,100753.34
2019-02-11T04:02:58.754Z,100762.43
2019-02-11T04:06:43.892Z,100760.22
2019-02-11T04:10:28.632Z,100765.91
2019-02-11T04:13:54.473Z,100790.98
2019-02-11T04:17:39.347Z,100788.11
2019-02-11T04:21:24.647Z,100784.14
2019-02-11T04:25:09.417Z,100801.36
2019-02-11T04:28:54.282Z,100812.16
2019-02-11T04:32:39.106Z,100808.95
2019-02-11T04:36:23.945Z,100829.73
2019-02-11T04:40:10.012Z,100846.18
2019-02-11T04:43:54.767Z,100845.80
2019-02-11T04:47:39.523Z,100849.17
2019-02-11T04:51:24.448Z,100862.66
2019-02-11T04:55:02.642Z,100858.62
2019-02-11T04:58:47.501Z,100878.66
2019-02-11T05:02:32.194Z,100875.70
2019-02-11T05:06:16.989Z,100877.30
2019-02-11T05:10:01.720Z,100888.33
2019-02-11T05:13:46.558Z,100896.12
2019-02-11T05:17:31.816Z,100890.72
2019-02-11T05:21:16.537Z,100890.00
2019-02-11T05:25:20.148Z,100894.17
2019-02-11T05:29:05.194Z,100902.56
2019-02-11T05:32:50.044Z,100918.78
2019-02-11T05:36:34.818Z,100920.91
2019-02-11T05:40:19.638Z,100917.70
2019-02-11T05:44:05.915Z,100919.09
2019-02-11T05:48:09.649Z,100927.94
2019-02-11T05:51:48.341Z,100934.47
2019-02-11T05:55:33.308Z,100951.23
2019-02-11T05:59:17.954Z,100958.71
2019-02-11T06:03:02.516Z,100968.80
2019-02-11T06:06:47.104Z,100973.89
2019-02-11T06:14:35.187Z,100981.67
2019-02-11T06:18:19.807Z,100998.81
2019-02-11T06:22:04.524Z,101012.99
2019-02-11T06:25:49.124Z,101031.96
2019-02-11T06:29:34.072Z,101036.75
2019-02-11T06:33:18.712Z,101050.74
2019-02-11T06:41:38.212Z,101066.41
2019-02-11T06:45:23.218Z,101089.59
2019-02-11T06:49:07.844Z,101099.39
2019-02-11T06:52:45.984Z,101106.73
2019-02-11T06:56:30.607Z,101116.97
2019-02-11T07:00:34.603Z,101115.58
2019-02-11T07:04:19.241Z,101127.53
2019-02-11T07:08:04.044Z,101139.61
2019-02-11T07:11:48.670Z,101150.28
2019-02-11T07:15:25.510Z,101156.55
2019-02-11T07:19:31.266Z,101164.95
2019-02-11T07:23:34.948Z,101174.46
2019-02-11T07:27:19.565Z,101176.55
2019-02-11T07:34:54.064Z,101198.86
2019-02-11T07:38:38.638Z,101204.40
2019-02-11T07:46:46.608Z,101215.00
2019-02-11T07:50:31.244Z,101224.95
2019-02-11T07:54:07.990Z,101235.56
2019-02-11T07:57:33.827Z,101231.23
2019-02-11T08:01:19.092Z,101236.90
2019-02-11T08:05:03.748Z,101247.20
2019-02-11T08:12:38.740Z,101263.39
2019-02-11T08:20:13.688Z,101276.47
2019-02-11T08:23:58.293Z,101278.64
2019-02-11T08:27:43.532Z,101289.62
2019-02-11T08:31:28.479Z,101301.93
2019-02-11T08:35:13.130Z,101301.92
2019-02-11T08:38:57.734Z,101313.66
2019-02-11T08:43:01.462Z,101319.56
2019-02-11T08:46:46.069Z,101329.33
2019-02-11T08:50:30.945Z,101348.14
2019-02-11T08:53:56.550Z,101347.70
2019-02-11T08:57:41.155Z,101354.86
2019-02-11T09:01:25.787Z,101348.98
2019-02-11T09:09:01.216Z,101368.95
2019-02-11T09:16:41.688Z,101381.18
2019-02-11T09:20:26.324Z,101391.15
2019-02-11T09:28:14.472Z,101407.13
2019-02-11T09:31:59.094Z,101414.95
2019-02-11T09:35:44.577Z,101425.44
2019-02-11T09:39:29.769Z,101436.47
2019-02-11T09:42:55.789Z,101447.53
2019-02-11T09:46:59.244Z,101447.73
2019-02-11T09:50:38.762Z,101460.76
2019-02-11T09:54:04.351Z,101460.94
2019-02-11T09:57:48.990Z,101454.52
2019-02-11T10:01:33.579Z,101463.81
2019-02-11T10:05:18.166Z,101481.55
2019-02-11T10:09:03.197Z,101476.09
2019-02-11T10:16:44.202Z,101484.63
2019-02-11T10:24:19.328Z,101498.84
2019-02-11T10:28:09.891Z,101504.03
2019-02-11T10:32:13.319Z,101508.03
2019-02-11T10:35:58.022Z,101523.27
2019-02-11T10:39:42.632Z,101526.55
2019-02-11T10:43:27.260Z,101530.67
2019-02-11T10:47:11.886Z,101535.94
2019-02-11T10:50:48.876Z,101539.31
2019-02-11T10:54:33.562Z,101542.25
2019-02-11T11:02:27.504Z,101556.41
2019-02-11T11:10:02.184Z,101566.81
2019-02-11T11:13:46.842Z,101577.92
2019-02-11T11:17:31.430Z,101583.41
2019-02-11T11:21:16.394Z,101595.15
2019-02-11T11:25:01.313Z,101609.13
2019-02-11T11:28:45.934Z,101603.73
2019-02-11T11:32:30.544Z,101617.02
2019-02-11T11:36:15.163Z,101634.00
2019-02-11T11:39:59.802Z,101634.36
2019-02-11T11:47:48.501Z,101661.05
2019-02-11T11:51:25.977Z,101675.05
2019-02-11T11:55:50.538Z,101670.31
2019-02-11T11:59:35.179Z,101670.47
2019-02-11T12:03:19.805Z,101681.55
2019-02-11T12:07:04.457Z,101682.30
2019-02-11T12:18:29.568Z,101699.48
2019-02-11T12:22:14.195Z,101714.23
2019-02-11T12:29:49.422Z,101716.56
2019-02-11T12:33:34.018Z,101720.78
2019-02-11T12:41:08.417Z,101747.83
2019-02-11T12:44:53.560Z,101760.47
2019-02-11T12:48:38.250Z,101762.16
2019-02-11T12:52:15.775Z,101757.20
2019-02-11T12:56:02.527Z,101767.38
2019-02-11T12:59:47.304Z,101768.52
2019-02-11T13:03:32.318Z,101774.95
2019-02-11T13:07:16.937Z,101773.49
2019-02-11T13:11:01.686Z,101790.64
2019-02-11T13:14:46.658Z,101805.83
2019-02-11T13:18:24.747Z,101809.91
2019-02-11T13:22:09.486Z,101813.44
2019-02-11T13:25:54.141Z,101838.25
2019-02-11T13:29:38.779Z,101863.42
2019-02-11T13:33:23.425Z,101866.25
2019-02-11T13:40:58.645Z,101854.86
2019-02-11T13:44:43.272Z,101855.34
2019-02-11T13:48:28.079Z,101869.57
2019-02-11T13:52:05.256Z,101876.86
2019-02-11T13:55:50.157Z,101869.77
2019-02-11T13:59:34.749Z,101879.09
2019-02-11T14:03:20.381Z,101886.66
2019-02-11T14:07:05.921Z,101899.63
2019-02-11T14:10:50.603Z,101917.04
2019-02-11T14:14:35.259Z,101921.08
2019-02-11T14:18:15.255Z,101923.58
2019-02-11T14:21:59.530Z,101935.84
2019-02-11T14:26:02.995Z,101945.20
2019-02-11T14:33:51.189Z,101952.05
2019-02-11T14:37:36.117Z,101955.92
2019-02-11T14:41:20.700Z,101972.79
2019-02-11T14:45:45.002Z,101971.97
2019-02-11T14:49:29.633Z,101974.67
2019-02-11T14:53:08.305Z,101975.81
2019-02-11T15:00:56.470Z,101978.89
2019-02-11T15:04:41.081Z,101999.09
2019-02-11T15:08:26.149Z,101993.91
2019-02-11T15:12:11.058Z,102004.42
2019-02-11T15:19:46.081Z,102022.34
2019-02-11T15:27:20.809Z,102049.32
2019-02-11T15:35:28.308Z,102062.63
2019-02-11T15:39:12.968Z,102073.19
2019-02-11T15:42:57.557Z,102087.66
2019-02-11T15:46:42.191Z,102091.42
2019-02-11T15:50:26.845Z,102100.20
2019-02-11T15:54:03.714Z,102110.27
2019-02-11T15:57:48.322Z,102122.10
2019-02-11T16:01:32.971Z,102132.22
2019-02-11T16:05:17.587Z,102133.80
2019-02-11T16:09:04.585Z,102145.64
2019-02-11T16:12:48.610Z,102149.02
2019-02-11T16:16:33.527Z,102162.72
2019-02-11T16:20:17.525Z,102176.63
2019-02-11T16:27:51.610Z,102197.38
2019-02-11T16:31:35.630Z,102211.14
2019-02-11T16:35:19.640Z,102217.73
2019-02-11T16:43:08.809Z,102248.46
2019-02-11T16:51:30.686Z,102278.16
2019-02-11T16:55:08.803Z,102291.27
2019-02-11T16:58:53.443Z,102300.06
2019-02-11T17:02:38.065Z,102317.11
2019-02-11T17:10:26.176Z,102342.52
2019-02-11T17:14:11.188Z,102352.88
2019-02-11T17:17:55.792Z,102371.66
2019-02-11T17:21:33.093Z,102380.84
2019-02-11T17:25:18.012Z,102386.90
2019-02-11T17:29:02.641Z,102393.73
2019-02-11T17:32:47.239Z,102393.22
2019-02-11T17:36:31.868Z,102394.36
2019-02-11T17:40:16.470Z,102416.80
2019-02-11T17:44:01.148Z,102417.50
2019-02-11T17:47:46.020Z,102414.09
2019-02-11T17:51:30.674Z,102423.97
2019-02-11T17:55:08.828Z,102437.98
2019-02-11T17:58:53.795Z,102440.20
2019-02-11T18:02:38.398Z,102439.27
2019-02-11T18:10:13.600Z,102447.50
2019-02-11T18:13:58.198Z,102460.98
2019-02-11T18:26:14.433Z,102466.81
2019-02-11T18:29:59.044Z,102476.78
2019-02-11T18:33:50.918Z,102470.39
2019-02-11T18:45:16.297Z,102512.63
2019-02-11T18:49:01.671Z,102504.33
2019-02-11T18:52:46.339Z,102518.97
2019-02-11T18:56:30.966Z,102522.28
2019-02-11T19:04:12.283Z,102545.22
2019-02-11T19:07:56.925Z,102540.25
2019-02-11T19:11:41.537Z,102535.59
2019-02-11T19:15:26.237Z,102526.59
2019-02-11T19:23:07.455Z,102505.42
2019-02-11T19:26:52.067Z,102511.69
2019-02-11T19:30:36.715Z,102528.66
2019-02-11T19:34:21.359Z,102538.58
2019-02-11T19:38:05.995Z,102543.48
2019-02-11T19:41:50.584Z,102577.04
2019-02-11T19:45:35.561Z,102585.86
2019-02-11T19:49:20.431Z,102568.16
2019-02-11T19:53:05.066Z,102584.62
2019-02-11T19:56:42.164Z,102564.75
2019-02-11T20:00:45.636Z,102574.81
2019-02-11T20:04:30.886Z,102585.50
2019-02-11T20:08:15.487Z,102595.52
2019-02-11T20:12:00.155Z,102598.95
2019-02-11T20:15:26.399Z,102606.80
2019-02-11T20:19:11.089Z,102611.22
2019-02-11T20:22:36.708Z,102613.78
2019-02-11T20:26:21.381Z,102621.03
2019-02-11T20:30:08.299Z,102630.27
2019-02-11T20:33:53.137Z,102625.77
2019-02-11T20:41:48.288Z,102647.72
2019-02-11T20:45:20.273Z,102646.10
2019-02-11T20:49:04.964Z,102656.66
2019-02-11T20:52:51.251Z,102658.48
2019-02-11T20:56:35.958Z,102663.04
2019-02-11T21:00:22.015Z,102674.74
2019-02-11T21:03:47.695Z,102677.37
2019-02-11T21:07:33.901Z,102677.91
2019-02-11T21:11:18.990Z,102685.95
2019-02-11T21:15:03.742Z,102686.57
2019-02-11T21:18:48.339Z,102696.72
2019-02-11T21:22:25.487Z,102703.33
2019-02-11T21:26:10.370Z,102703.33
2019-02-11T21:29:54.957Z,102717.94
2019-02-11T21:33:58.470Z,102717.48
2019-02-11T21:37:43.085Z,102726.61
2019-02-11T21:41:27.818Z,102743.08
2019-02-11T21:45:12.505Z,102741.67
2019-02-11T21:48:57.240Z,102735.31
2019-02-11T21:56:24.567Z,102752.70
2019-02-11T22:00:11.389Z,102749.16
2019-02-11T22:03:56.007Z,102749.66
2019-02-11T22:11:44.122Z,102752.89
2019-02-11T22:15:28.731Z,102753.95
2019-02-11T22:19:13.373Z,102759.20
2019-02-11T22:22:50.716Z,102775.50
2019-02-11T22:34:29.501Z,102772.82
2019-02-11T22:38:14.183Z,102777.64
2019-02-11T22:41:58.805Z,102772.27
2019-02-11T22:45:43.432Z,102776.36
2019-02-11T22:49:28.092Z,102772.13
2019-02-11T22:53:12.704Z,102778.95
2019-02-11T22:56:50.017Z,102784.55
2019-02-11T23:01:15.148Z,102783.55
2019-02-11T23:04:59.785Z,102794.12
2019-02-11T23:08:44.424Z,102798.85
2019-02-11T23:12:29.323Z,102812.20
2019-02-11T23:16:14.164Z,102812.50
2019-02-11T23:19:58.776Z,102817.65
2019-02-11T23:23:43.696Z,102818.70
2019-02-11T23:27:09.257Z,102819.86
2019-02-11T23:30:53.853Z,102807.21
2019-02-11T23:34:59.550Z,102797.52
2019-02-11T23:38:44.199Z,102813.02
2019-02-11T23:42:29.237Z,102817.02
2019-02-11T23:50:22.902Z,102818.09
2019-02-11T23:53:48.451Z,102829.23
2019-02-11T23:57:25.539Z,102836.56
